sensor_id;sensor_type;location;lat;lon;timestamp;temperature;humidity
9973;DHT22;5027;53.560;10.062;2023-02-18T09:14:34;10.30;99.90
9973;DHT22;5027;53.560;10.062;2023-02-18T09:17:01;10.30;99.90
9973;DHT22;5027;53.560;10.062;2023-02-18T09:19:27;10.30;99.90
9973;DHT22;5027;53.560;10.062;2023-02-18T09:21:54;10.30;99.90
9973;DHT22;5027;53.560;10.062;2023-02-18T09:24:25;10.30;99.90
9973;DHT22;5027;53.560;10.062;2023-02-18T09:26:52;10.30;99.90
9973;DHT22;5027;53.560;10.062;2023-02-18T09:29:19;10.30;99.90
9973;DHT22;5027;53.560;10.062;2023-02-18T09:31:46;10.30;99.90
9973;DHT22;5027;53.560;10.062;2023-02-18T09:34:13;10.30;99.90
9973;DHT22;5027;53.560;10.062;2023-02-18T09:36:39;10.30;99.90
9973;DHT22;5027;53.560;10.062;2023-02-18T09:39:06;10.30;99.90
9973;DHT22;5027;53.560;10.062;2023-02-18T09:41:47;10.30;99.90
9973;DHT22;5027;53.560;10.062;2023-02-18T09:47:03;10.30;99.90
9973;DHT22;5027;53.560;10.062;2023-02-18T09:49:34;10.30;99.90
9973;DHT22;5027;53.560;10.062;2023-02-18T09:52:15;10.40;99.90
9973;DHT22;5027;53.560;10.062;2023-02-18T09:54:43;10.30;99.90
9973;DHT22;5027;53.560;10.062;2023-02-18T09:57:29;10.40;99.90
9973;DHT22;5027;53.560;10.062;2023-02-18T10:00:04;10.40;99.90
9973;DHT22;5027;53.560;10.062;2023-02-18T10:02:39;10.40;99.90
9973;DHT22;5027;53.560;10.062;2023-02-18T10:05:12;10.30;99.90
9973;DHT22;5027;53.560;10.062;2023-02-18T10:07:42;10.30;99.90
9973;DHT22;5027;53.560;10.062;2023-02-18T10:12:58;10.30;99.90
9973;DHT22;5027;53.560;10.062;2023-02-18T10:15:28;10.30;99.90
9973;DHT22;5027;53.560;10.062;2023-02-18T10:17:56;10.20;99.90
9973;DHT22;5027;53.560;10.062;2023-02-18T10:20:27;10.30;99.90
9973;DHT22;5027;53.560;10.062;2023-02-18T10:22:57;10.30;99.90
9973;DHT22;5027;53.560;10.062;2023-02-18T10:25:25;10.30;99.90
9973;DHT22;5027;53.560;10.062;2023-02-18T10:27:56;10.30;99.90
9973;DHT22;5027;53.560;10.062;2023-02-18T10:30:32;10.30;99.90
9973;DHT22;5027;53.560;10.062;2023-02-18T10:35:52;10.30;99.90
9973;DHT22;5027;53.560;10.062;2023-02-18T10:38:33;10.30;99.90
9973;DHT22;5027;53.560;10.062;2023-02-18T10:44:04;10.40;99.90
9973;DHT22;5027;53.560;10.062;2023-02-18T10:52:02;10.40;99.90
9973;DHT22;5027;53.560;10.062;2023-02-18T10:57:18;10.40;99.90
9973;DHT22;5027;53.560;10.062;2023-02-18T11:00:16;10.40;99.90
9973;DHT22;5027;53.560;10.062;2023-02-18T11:02:45;10.40;99.90
9973;DHT22;5027;53.560;10.062;2023-02-18T11:05:24;10.50;99.90
9973;DHT22;5027;53.560;10.062;2023-02-18T11:07:55;10.50;99.90
9973;DHT22;5027;53.560;10.062;2023-02-18T11:10:29;10.40;99.90
9973;DHT22;5027;53.560;10.062;2023-02-18T11:13:00;10.40;99.90
9973;DHT22;5027;53.560;10.062;2023-02-18T11:15:29;10.50;99.90
9973;DHT22;5027;53.560;10.062;2023-02-18T11:18:38;10.50;99.90
9973;DHT22;5027;53.560;10.062;2023-02-18T11:23:53;10.50;99.90
9973;DHT22;5027;53.560;10.062;2023-02-18T11:26:38;10.50;99.90
9973;DHT22;5027;53.560;10.062;2023-02-18T11:29:12;10.50;99.90
9973;DHT22;5027;53.560;10.062;2023-02-18T11:31:44;10.60;99.90
9973;DHT22;5027;53.560;10.062;2023-02-18T11:34:25;10.50;99.90
9973;DHT22;5027;53.560;10.062;2023-02-18T11:36:53;10.60;99.90
9973;DHT22;5027;53.560;10.062;2023-02-18T11:39:25;10.60;99.90
9973;DHT22;5027;53.560;10.062;2023-02-18T11:41:54;10.60;99.90
9973;DHT22;5027;53.560;10.062;2023-02-18T11:44:34;10.60;99.90
9973;DHT22;5027;53.560;10.062;2023-02-18T11:49:40;10.70;99.90
9973;DHT22;5027;53.560;10.062;2023-02-18T11:52:28;10.70;99.90
9973;DHT22;5027;53.560;10.062;2023-02-18T11:55:14;10.90;99.90
9973;DHT22;5027;53.560;10.062;2023-02-18T11:57:54;11.20;99.90
9973;DHT22;5027;53.560;10.062;2023-02-18T12:02:50;11.30;99.90
9973;DHT22;5027;53.560;10.062;2023-02-18T12:05:26;11.50;99.90
9973;DHT22;5027;53.560;10.062;2023-02-18T12:08:01;11.70;99.90
9973;DHT22;5027;53.560;10.062;2023-02-18T12:10:35;11.90;99.90
9973;DHT22;5027;53.560;10.062;2023-02-18T12:13:19;11.80;99.90
9973;DHT22;5027;53.560;10.062;2023-02-18T12:27:28;12.00;99.90
9973;DHT22;5027;53.560;10.062;2023-02-18T12:30:28;12.40;99.90
9973;DHT22;5027;53.560;10.062;2023-02-18T12:35:40;12.40;99.90
9973;DHT22;5027;53.560;10.062;2023-02-18T12:41:34;12.30;99.90
9973;DHT22;5027;53.560;10.062;2023-02-18T12:44:37;12.20;99.90
9973;DHT22;5027;53.560;10.062;2023-02-18T12:47:41;12.20;99.90
9973;DHT22;5027;53.560;10.062;2023-02-18T13:14:18;13.90;99.90
9973;DHT22;5027;53.560;10.062;2023-02-18T13:16:48;13.80;99.90
9973;DHT22;5027;53.560;10.062;2023-02-18T13:19:36;13.80;99.90
9973;DHT22;5027;53.560;10.062;2023-02-18T13:22:11;14.00;99.90
9973;DHT22;5027;53.560;10.062;2023-02-18T13:24:44;13.60;99.90
9973;DHT22;5027;53.560;10.062;2023-02-18T13:27:32;13.70;99.90
9973;DHT22;5027;53.560;10.062;2023-02-18T13:32:39;13.70;99.90
9973;DHT22;5027;53.560;10.062;2023-02-18T13:35:21;13.40;99.90
9973;DHT22;5027;53.560;10.062;2023-02-18T13:40:38;13.60;99.90
9973;DHT22;5027;53.560;10.062;2023-02-18T13:45:43;13.40;99.90
9973;DHT22;5027;53.560;10.062;2023-02-18T13:48:28;13.40;99.90
9973;DHT22;5027;53.560;10.062;2023-02-18T13:51:02;13.30;99.90
9973;DHT22;5027;53.560;10.062;2023-02-18T13:53:36;13.40;99.90
9973;DHT22;5027;53.560;10.062;2023-02-18T13:56:31;13.30;99.90
9973;DHT22;5027;53.560;10.062;2023-02-18T13:59:10;13.40;99.90
9973;DHT22;5027;53.560;10.062;2023-02-18T14:01:41;13.60;99.90
9973;DHT22;5027;53.560;10.062;2023-02-18T14:07:28;13.50;99.90
9973;DHT22;5027;53.560;10.062;2023-02-18T14:09:57;13.50;99.90
9973;DHT22;5027;53.560;10.062;2023-02-18T14:12:38;13.60;99.90
9973;DHT22;5027;53.560;10.062;2023-02-18T14:18:19;13.40;99.90
9973;DHT22;5027;53.560;10.062;2023-02-18T14:20:49;13.60;99.90
9973;DHT22;5027;53.560;10.062;2023-02-18T14:25:51;13.70;99.90
9973;DHT22;5027;53.560;10.062;2023-02-18T14:33:34;12.70;99.90
9973;DHT22;5027;53.560;10.062;2023-02-18T14:42:31;11.60;99.90
9973;DHT22;5027;53.560;10.062;2023-02-18T14:48:22;11.50;99.90
9973;DHT22;5027;53.560;10.062;2023-02-18T14:50:54;11.40;99.90
9973;DHT22;5027;53.560;10.062;2023-02-18T14:53:23;11.30;99.90
9973;DHT22;5027;53.560;10.062;2023-02-18T14:56:02;11.20;99.90
9973;DHT22;5027;53.560;10.062;2023-02-18T14:58:35;11.20;99.90
9973;DHT22;5027;53.560;10.062;2023-02-18T15:01:12;11.20;99.90
9973;DHT22;5027;53.560;10.062;2023-02-18T15:03:41;11.20;99.90
9973;DHT22;5027;53.560;10.062;2023-02-18T15:08:51;11.00;99.90
9973;DHT22;5027;53.560;10.062;2023-02-18T15:11:20;11.00;99.90
9973;DHT22;5027;53.560;10.062;2023-02-18T15:13:49;11.00;99.90
9973;DHT22;5027;53.560;10.062;2023-02-18T15:16:22;10.90;99.90
9973;DHT22;5027;53.560;10.062;2023-02-18T15:18:53;11.00;99.90
9973;DHT22;5027;53.560;10.062;2023-02-18T15:21:28;10.90;99.90
9973;DHT22;5027;53.560;10.062;2023-02-18T15:24:06;11.00;99.90
9973;DHT22;5027;53.560;10.062;2023-02-18T15:26:36;10.90;99.90
9973;DHT22;5027;53.560;10.062;2023-02-18T15:29:24;10.90;99.90
9973;DHT22;5027;53.560;10.062;2023-02-18T15:31:53;10.90;99.90
9973;DHT22;5027;53.560;10.062;2023-02-18T15:34:36;10.90;99.90
9973;DHT22;5027;53.560;10.062;2023-02-18T15:37:06;10.80;99.90
9973;DHT22;5027;53.560;10.062;2023-02-18T15:39:34;10.90;99.90
9973;DHT22;5027;53.560;10.062;2023-02-18T15:42:33;10.80;99.90
9973;DHT22;5027;53.560;10.062;2023-02-18T15:45:33;10.80;99.90
9973;DHT22;5027;53.560;10.062;2023-02-18T15:48:03;10.80;99.90
9973;DHT22;5027;53.560;10.062;2023-02-18T15:50:34;10.70;99.90
9973;DHT22;5027;53.560;10.062;2023-02-18T15:53:13;10.80;99.90
9973;DHT22;5027;53.560;10.062;2023-02-18T15:55:42;10.70;99.90
9973;DHT22;5027;53.560;10.062;2023-02-18T15:58:14;10.70;99.90
9973;DHT22;5027;53.560;10.062;2023-02-18T16:01:25;10.70;99.90
9973;DHT22;5027;53.560;10.062;2023-02-18T16:03:54;10.70;99.90
9973;DHT22;5027;53.560;10.062;2023-02-18T16:06:24;10.70;99.90
9973;DHT22;5027;53.560;10.062;2023-02-18T16:11:35;10.70;99.90
9973;DHT22;5027;53.560;10.062;2023-02-18T16:14:03;10.70;99.90
9973;DHT22;5027;53.560;10.062;2023-02-18T16:16:34;10.70;99.90
9973;DHT22;5027;53.560;10.062;2023-02-18T16:19:02;10.70;99.90
9973;DHT22;5027;53.560;10.062;2023-02-18T16:21:38;10.70;99.90
9973;DHT22;5027;53.560;10.062;2023-02-18T16:26:53;10.60;99.90
9973;DHT22;5027;53.560;10.062;2023-02-18T16:29:26;10.60;99.90
9973;DHT22;5027;53.560;10.062;2023-02-18T16:31:58;10.60;99.90
9973;DHT22;5027;53.560;10.062;2023-02-18T16:34:25;10.70;99.90
9973;DHT22;5027;53.560;10.062;2023-02-18T16:36:53;10.60;99.90
9973;DHT22;5027;53.560;10.062;2023-02-18T16:39:39;10.60;99.90
9973;DHT22;5027;53.560;10.062;2023-02-18T16:42:12;10.60;99.90
9973;DHT22;5027;53.560;10.062;2023-02-18T16:44:39;10.90;99.90
9973;DHT22;5027;53.560;10.062;2023-02-18T16:47:09;10.90;99.90
9973;DHT22;5027;53.560;10.062;2023-02-18T16:49:38;11.00;99.90
9973;DHT22;5027;53.560;10.062;2023-02-18T16:52:07;11.00;99.90
9973;DHT22;5027;53.560;10.062;2023-02-18T16:54:34;11.00;99.90
9973;DHT22;5027;53.560;10.062;2023-02-18T16:57:01;10.80;99.90
9973;DHT22;5027;53.560;10.062;2023-02-18T16:59:27;10.60;99.90
9973;DHT22;5027;53.560;10.062;2023-02-18T17:01:54;10.60;99.90
9973;DHT22;5027;53.560;10.062;2023-02-18T17:04:21;10.80;99.90
9973;DHT22;5027;53.560;10.062;2023-02-18T17:06:49;10.70;99.90
9973;DHT22;5027;53.560;10.062;2023-02-18T17:09:17;10.70;99.90
9973;DHT22;5027;53.560;10.062;2023-02-18T17:11:49;10.70;99.90
9973;DHT22;5027;53.560;10.062;2023-02-18T17:14:18;10.60;99.90
9973;DHT22;5027;53.560;10.062;2023-02-18T17:16:50;10.60;99.90
9973;DHT22;5027;53.560;10.062;2023-02-18T17:19:18;10.70;99.90
9973;DHT22;5027;53.560;10.062;2023-02-18T17:21:45;10.70;99.90
9973;DHT22;5027;53.560;10.062;2023-02-18T17:24:16;10.80;99.90
9973;DHT22;5027;53.560;10.062;2023-02-18T17:26:43;10.80;99.90
9973;DHT22;5027;53.560;10.062;2023-02-18T17:29:10;11.40;99.90
9973;DHT22;5027;53.560;10.062;2023-02-18T17:31:39;11.60;99.90
9973;DHT22;5027;53.560;10.062;2023-02-18T17:34:14;11.40;99.90
9973;DHT22;5027;53.560;10.062;2023-02-18T17:36:42;11.10;99.90
9973;DHT22;5027;53.560;10.062;2023-02-18T17:39:12;11.20;99.90
9973;DHT22;5027;53.560;10.062;2023-02-18T17:46:07;10.90;99.90
9973;DHT22;5027;53.560;10.062;2023-02-18T17:48:36;10.70;99.90
9973;DHT22;5027;53.560;10.062;2023-02-18T17:51:03;10.80;99.90
9973;DHT22;5027;53.560;10.062;2023-02-18T17:53:32;10.70;99.90
9973;DHT22;5027;53.560;10.062;2023-02-18T17:55:58;10.60;99.90
9973;DHT22;5027;53.560;10.062;2023-02-18T17:58:25;10.70;99.90
9973;DHT22;5027;53.560;10.062;2023-02-18T18:00:55;10.60;99.90
9973;DHT22;5027;53.560;10.062;2023-02-18T18:03:22;10.60;99.90
9973;DHT22;5027;53.560;10.062;2023-02-18T18:05:50;10.50;99.90
9973;DHT22;5027;53.560;10.062;2023-02-18T18:08:17;10.50;99.90
9973;DHT22;5027;53.560;10.062;2023-02-18T18:10:53;10.40;99.90
9973;DHT22;5027;53.560;10.062;2023-02-18T18:13:23;10.40;99.90
9973;DHT22;5027;53.560;10.062;2023-02-18T18:15:50;10.40;99.90
9973;DHT22;5027;53.560;10.062;2023-02-18T18:18:17;10.30;99.90
9973;DHT22;5027;53.560;10.062;2023-02-18T18:20:47;10.30;99.90
9973;DHT22;5027;53.560;10.062;2023-02-18T18:23:16;10.30;99.90
9973;DHT22;5027;53.560;10.062;2023-02-18T18:28:14;10.40;99.90
9973;DHT22;5027;53.560;10.062;2023-02-18T18:30:43;10.40;99.90
9973;DHT22;5027;53.560;10.062;2023-02-18T18:33:14;10.40;99.90
9973;DHT22;5027;53.560;10.062;2023-02-18T18:35:42;10.40;99.90
9973;DHT22;5027;53.560;10.062;2023-02-18T18:38:12;10.40;99.90
9973;DHT22;5027;53.560;10.062;2023-02-18T18:40:39;10.60;99.90
9973;DHT22;5027;53.560;10.062;2023-02-18T18:43:06;10.70;99.90
9973;DHT22;5027;53.560;10.062;2023-02-18T18:45:35;10.60;99.90
9973;DHT22;5027;53.560;10.062;2023-02-18T18:48:05;10.60;99.90
9973;DHT22;5027;53.560;10.062;2023-02-18T18:50:32;10.80;99.90
9973;DHT22;5027;53.560;10.062;2023-02-18T18:53:20;11.00;99.90
9973;DHT22;5027;53.560;10.062;2023-02-18T18:55:47;10.80;99.90
9973;DHT22;5027;53.560;10.062;2023-02-18T18:58:15;10.70;99.90
9973;DHT22;5027;53.560;10.062;2023-02-18T19:00:51;10.80;99.90
9973;DHT22;5027;53.560;10.062;2023-02-18T19:03:20;10.90;99.90
9973;DHT22;5027;53.560;10.062;2023-02-18T19:05:48;11.00;99.90
9973;DHT22;5027;53.560;10.062;2023-02-18T19:08:16;10.90;99.90
9973;DHT22;5027;53.560;10.062;2023-02-18T19:10:47;11.00;99.90
9973;DHT22;5027;53.560;10.062;2023-02-18T19:13:17;11.00;99.90
9973;DHT22;5027;53.560;10.062;2023-02-18T19:15:44;11.10;99.90
9973;DHT22;5027;53.560;10.062;2023-02-18T19:18:13;11.30;99.90
9973;DHT22;5027;53.560;10.062;2023-02-18T19:20:40;11.50;99.90
9973;DHT22;5027;53.560;10.062;2023-02-18T19:23:08;11.40;99.90
9973;DHT22;5027;53.560;10.062;2023-02-18T19:25:35;11.30;99.90
9973;DHT22;5027;53.560;10.062;2023-02-18T19:28:04;11.20;99.90
9973;DHT22;5027;53.560;10.062;2023-02-18T19:30:33;11.20;99.90
9973;DHT22;5027;53.560;10.062;2023-02-18T19:33:02;11.30;99.90
9973;DHT22;5027;53.560;10.062;2023-02-18T19:35:29;11.50;99.90
9973;DHT22;5027;53.560;10.062;2023-02-18T19:37:57;11.10;99.90
9973;DHT22;5027;53.560;10.062;2023-02-18T19:40:26;10.70;99.90
9973;DHT22;5027;53.560;10.062;2023-02-18T19:42:54;10.80;99.90
9973;DHT22;5027;53.560;10.062;2023-02-18T19:45:21;10.70;99.90
9973;DHT22;5027;53.560;10.062;2023-02-18T19:47:56;10.60;99.90
9973;DHT22;5027;53.560;10.062;2023-02-18T19:50:24;10.60;99.90
9973;DHT22;5027;53.560;10.062;2023-02-18T19:52:52;10.60;99.90
9973;DHT22;5027;53.560;10.062;2023-02-18T19:55:19;10.50;99.90
9973;DHT22;5027;53.560;10.062;2023-02-18T19:57:46;10.80;99.90
9973;DHT22;5027;53.560;10.062;2023-02-18T20:00:15;10.70;99.90
9973;DHT22;5027;53.560;10.062;2023-02-18T20:02:42;10.50;99.90
9973;DHT22;5027;53.560;10.062;2023-02-18T20:05:10;10.50;99.90
9973;DHT22;5027;53.560;10.062;2023-02-18T20:07:38;10.40;99.90
9973;DHT22;5027;53.560;10.062;2023-02-18T20:10:12;10.40;99.90
9973;DHT22;5027;53.560;10.062;2023-02-18T20:12:38;10.40;99.90
9973;DHT22;5027;53.560;10.062;2023-02-18T20:15:05;10.30;99.90
9973;DHT22;5027;53.560;10.062;2023-02-18T20:17:32;10.20;99.90
9973;DHT22;5027;53.560;10.062;2023-02-18T20:19:59;10.20;99.90
9973;DHT22;5027;53.560;10.062;2023-02-18T20:22:26;10.60;99.90
9973;DHT22;5027;53.560;10.062;2023-02-18T20:24:52;10.60;99.90
9973;DHT22;5027;53.560;10.062;2023-02-18T20:27:19;10.50;99.90
9973;DHT22;5027;53.560;10.062;2023-02-18T20:29:46;10.40;99.90
9973;DHT22;5027;53.560;10.062;2023-02-18T20:32:12;10.30;99.90
9973;DHT22;5027;53.560;10.062;2023-02-18T20:34:39;10.20;99.90
9973;DHT22;5027;53.560;10.062;2023-02-18T20:37:06;10.30;99.90
9973;DHT22;5027;53.560;10.062;2023-02-18T20:39:33;10.20;99.90
9973;DHT22;5027;53.560;10.062;2023-02-18T20:42:00;10.20;99.90
9973;DHT22;5027;53.560;10.062;2023-02-18T20:44:41;10.30;99.90
9973;DHT22;5027;53.560;10.062;2023-02-18T20:47:07;10.20;99.90
9973;DHT22;5027;53.560;10.062;2023-02-18T20:49:34;10.20;99.90
9973;DHT22;5027;53.560;10.062;2023-02-18T20:52:01;10.10;99.90
9973;DHT22;5027;53.560;10.062;2023-02-18T20:54:27;10.20;99.90
9973;DHT22;5027;53.560;10.062;2023-02-18T20:56:54;10.20;99.90
9973;DHT22;5027;53.560;10.062;2023-02-18T20:59:21;10.60;99.90
9973;DHT22;5027;53.560;10.062;2023-02-18T21:01:48;10.50;99.90
9973;DHT22;5027;53.560;10.062;2023-02-18T21:04:17;10.40;99.90
9973;DHT22;5027;53.560;10.062;2023-02-18T21:06:45;10.40;99.90
9973;DHT22;5027;53.560;10.062;2023-02-18T21:09:14;10.50;99.90
9973;DHT22;5027;53.560;10.062;2023-02-18T21:11:41;10.30;99.90
9973;DHT22;5027;53.560;10.062;2023-02-18T21:14:08;10.20;99.90
9973;DHT22;5027;53.560;10.062;2023-02-18T21:16:36;10.10;99.90
9973;DHT22;5027;53.560;10.062;2023-02-18T21:19:07;10.00;99.90
9973;DHT22;5027;53.560;10.062;2023-02-18T21:21:36;10.00;99.90
9973;DHT22;5027;53.560;10.062;2023-02-18T21:24:02;9.80;99.90
9973;DHT22;5027;53.560;10.062;2023-02-18T21:26:29;10.10;99.90
9973;DHT22;5027;53.560;10.062;2023-02-18T21:29:00;10.10;99.90
9973;DHT22;5027;53.560;10.062;2023-02-18T21:31:32;10.30;99.90
9973;DHT22;5027;53.560;10.062;2023-02-18T21:34:00;10.30;99.90
9973;DHT22;5027;53.560;10.062;2023-02-18T21:36:29;10.30;99.90
9973;DHT22;5027;53.560;10.062;2023-02-18T21:38:58;10.20;99.90
9973;DHT22;5027;53.560;10.062;2023-02-18T21:41:26;10.30;99.90
9973;DHT22;5027;53.560;10.062;2023-02-18T21:43:53;10.20;99.90
9973;DHT22;5027;53.560;10.062;2023-02-18T21:46:29;10.20;99.90
9973;DHT22;5027;53.560;10.062;2023-02-18T21:48:57;10.30;99.90
9973;DHT22;5027;53.560;10.062;2023-02-18T21:51:43;10.20;99.90
9973;DHT22;5027;53.560;10.062;2023-02-18T21:54:42;10.20;99.90
9973;DHT22;5027;53.560;10.062;2023-02-18T21:57:13;10.20;99.90
9973;DHT22;5027;53.560;10.062;2023-02-18T21:59:40;10.30;99.90
9973;DHT22;5027;53.560;10.062;2023-02-18T22:02:18;10.30;99.90
9973;DHT22;5027;53.560;10.062;2023-02-18T22:04:46;10.30;99.90
9973;DHT22;5027;53.560;10.062;2023-02-18T22:07:13;10.50;99.90
9973;DHT22;5027;53.560;10.062;2023-02-18T22:09:40;10.60;99.90
9973;DHT22;5027;53.560;10.062;2023-02-18T22:12:07;10.50;99.90
9973;DHT22;5027;53.560;10.062;2023-02-18T22:14:34;10.50;99.90
9973;DHT22;5027;53.560;10.062;2023-02-18T22:17:01;10.30;99.90
9973;DHT22;5027;53.560;10.062;2023-02-18T22:19:27;10.10;99.90
9973;DHT22;5027;53.560;10.062;2023-02-18T22:21:54;10.10;99.90
9973;DHT22;5027;53.560;10.062;2023-02-18T22:24:21;10.10;99.90
9973;DHT22;5027;53.560;10.062;2023-02-18T22:26:48;10.20;99.90
9973;DHT22;5027;53.560;10.062;2023-02-18T22:29:17;10.20;99.90
9973;DHT22;5027;53.560;10.062;2023-02-18T22:31:45;10.10;99.90
9973;DHT22;5027;53.560;10.062;2023-02-18T22:34:12;10.10;99.90
9973;DHT22;5027;53.560;10.062;2023-02-18T22:36:39;10.00;99.90
9973;DHT22;5027;53.560;10.062;2023-02-18T22:39:06;9.90;99.90
9973;DHT22;5027;53.560;10.062;2023-02-18T22:41:34;9.80;99.90
9973;DHT22;5027;53.560;10.062;2023-02-18T22:44:04;9.70;99.90
9973;DHT22;5027;53.560;10.062;2023-02-18T22:46:33;9.70;99.90
9973;DHT22;5027;53.560;10.062;2023-02-18T22:49:00;9.70;99.90
9973;DHT22;5027;53.560;10.062;2023-02-18T22:51:39;9.70;99.90
9973;DHT22;5027;53.560;10.062;2023-02-18T22:54:10;9.70;99.90
9973;DHT22;5027;53.560;10.062;2023-02-18T22:56:37;9.70;99.90
9973;DHT22;5027;53.560;10.062;2023-02-18T22:59:03;9.70;99.90
9973;DHT22;5027;53.560;10.062;2023-02-18T23:01:35;10.00;99.90
9973;DHT22;5027;53.560;10.062;2023-02-18T23:04:11;10.10;99.90
9973;DHT22;5027;53.560;10.062;2023-02-18T23:06:40;10.00;99.90
9973;DHT22;5027;53.560;10.062;2023-02-18T23:09:09;10.10;99.90
9973;DHT22;5027;53.560;10.062;2023-02-18T23:11:36;10.00;99.90
9973;DHT22;5027;53.560;10.062;2023-02-18T23:14:03;9.90;99.90
9973;DHT22;5027;53.560;10.062;2023-02-18T23:16:59;9.90;99.90
9973;DHT22;5027;53.560;10.062;2023-02-18T23:22:08;9.90;99.90
9973;DHT22;5027;53.560;10.062;2023-02-18T23:24:37;9.90;99.90
9973;DHT22;5027;53.560;10.062;2023-02-18T23:27:04;10.00;99.90
9973;DHT22;5027;53.560;10.062;2023-02-18T23:29:31;9.90;99.90
9973;DHT22;5027;53.560;10.062;2023-02-18T23:31:58;9.90;99.90
9973;DHT22;5027;53.560;10.062;2023-02-18T23:34:25;9.90;99.90
9973;DHT22;5027;53.560;10.062;2023-02-18T23:36:52;9.80;99.90
9973;DHT22;5027;53.560;10.062;2023-02-18T23:39:20;9.80;99.90
9973;DHT22;5027;53.560;10.062;2023-02-18T23:41:48;9.80;99.90
9973;DHT22;5027;53.560;10.062;2023-02-18T23:44:17;9.80;99.90
9973;DHT22;5027;53.560;10.062;2023-02-18T23:46:44;9.80;99.90
9973;DHT22;5027;53.560;10.062;2023-02-18T23:49:19;9.80;99.90
9973;DHT22;5027;53.560;10.062;2023-02-18T23:51:51;9.90;99.90
9973;DHT22;5027;53.560;10.062;2023-02-18T23:54:19;9.90;99.90
9973;DHT22;5027;53.560;10.062;2023-02-18T23:56:46;9.80;99.90
9973;DHT22;5027;53.560;10.062;2023-02-18T23:59:13;9.80;99.90
